Time;durP1;ratioP1;P1;durP2;ratioP2;P2;SDS_P1;SDS_P2;PMS_P1;PMS_P2;Temp;Humidity;BMP_temperature;BMP_pressure;BME280_temperature;BME280_humidity;BME280_pressure;Samples;Min_cycle;Max_cycle;Signal;HPM_P1;HPM_P2
2022/12/20 00:00:13;;;;;;;71.65;33.97;;;;;;;-0.57;100.00;102315.88;5071430;28;20055;-73
2022/12/20 00:02:38;;;;;;;73.28;33.30;;;;;;;-0.68;100.00;102296.66;5072719;28;20036;-73
2022/12/20 00:05:04;;;;;;;66.82;32.65;;;;;;;-0.57;100.00;102304.44;5072688;28;20077;-72
2022/12/20 00:07:29;;;;;;;68.20;32.75;;;;;;;-0.51;100.00;102317.56;5072738;28;20028;-73
2022/12/20 00:09:55;;;;;;;73.13;32.72;;;;;;;-0.56;100.00;102308.81;5072141;28;20028;-72
2022/12/20 00:12:20;;;;;;;72.45;32.30;;;;;;;-0.57;100.00;102288.63;5072425;28;20032;-72
2022/12/20 00:14:46;;;;;;;74.40;33.13;;;;;;;-0.56;100.00;102287.72;5072229;28;20016;-73
2022/12/20 00:17:11;;;;;;;67.25;33.10;;;;;;;-0.69;100.00;102270.31;5072155;28;20115;-73
2022/12/20 00:19:36;;;;;;;72.57;32.35;;;;;;;-0.59;100.00;102280.75;5072183;28;20050;-73
2022/12/20 00:22:02;;;;;;;64.22;31.77;;;;;;;-0.53;100.00;102292.97;5072092;28;20016;-73
2022/12/20 00:24:29;;;;;;;69.45;32.97;;;;;;;-0.60;100.00;102273.75;5070691;28;20017;-73
2022/12/20 00:26:54;;;;;;;66.28;30.75;;;;;;;-0.49;100.00;102297.31;5072411;28;20024;-73
2022/12/20 00:29:20;;;;;;;68.15;31.73;;;;;;;-0.52;100.00;102298.22;5072140;28;20060;-73
2022/12/20 00:31:45;;;;;;;69.32;32.70;;;;;;;-0.54;100.00;102300.00;5072369;28;20025;-74
2022/12/20 00:34:11;;;;;;;71.03;31.58;;;;;;;-0.55;100.00;102306.16;5072056;28;20031;-74
2022/12/20 00:36:38;;;;;;;67.75;32.00;;;;;;;-0.51;100.00;102288.56;5072182;28;20035;-72
2022/12/20 00:39:04;;;;;;;66.63;31.40;;;;;;;-0.57;100.00;102281.59;5070739;28;20107;-73
2022/12/20 00:41:32;;;;;;;65.25;30.20;;;;;;;-0.45;100.00;102299.03;5071684;28;20051;-74
2022/12/20 00:43:58;;;;;;;68.53;29.75;;;;;;;-0.46;100.00;102284.09;5072148;28;20024;-74
2022/12/20 00:46:25;;;;;;;61.85;29.58;;;;;;;-0.52;100.00;102277.16;5070449;28;20098;-72
2022/12/20 00:48:51;;;;;;;62.42;28.92;;;;;;;-0.38;100.00;102288.38;5071819;28;20036;-73
2022/12/20 00:51:20;;;;;;;60.65;28.20;;;;;;;-0.39;100.00;102284.00;5071942;28;20043;-72
2022/12/20 00:53:46;;;;;;;59.45;28.50;;;;;;;-0.37;100.00;102279.59;5071434;28;20123;-74
2022/12/20 00:56:12;;;;;;;56.83;27.38;;;;;;;-0.42;100.00;102270.88;5071565;28;20107;-73
2022/12/20 00:58:40;;;;;;;59.35;27.20;;;;;;;-0.30;100.00;102283.03;5071488;28;20032;-72
2022/12/20 01:01:23;;;;;;;56.75;26.05;;;;;;;-0.19;100.00;102296.97;5070243;28;20036;-73
2022/12/20 01:03:50;;;;;;;55.42;26.50;;;;;;;-0.17;100.00;102293.41;5070010;28;20040;-73
2022/12/20 01:06:16;;;;;;;52.13;25.70;;;;;;;-0.25;100.00;102273.31;5069934;28;20107;-72
2022/12/20 01:08:41;;;;;;;57.03;25.92;;;;;;;-0.05;100.00;102277.44;5069989;28;20035;-72
2022/12/20 01:11:15;;;;;;;60.08;26.00;;;;;;;-0.07;100.00;102279.22;5069481;28;20037;-73
2022/12/20 01:13:42;;;;;;;;;;;;;;;-0.07;100.00;102270.41;5070168;28;20024;-74
2022/12/20 01:16:15;;;;;;;51.40;24.48;;;;;;;-0.03;99.67;102253.69;5069695;28;20292;-73
2022/12/20 01:18:40;;;;;;;59.88;26.10;;;;;;;-0.01;98.87;102242.22;5069595;28;20016;-72
2022/12/20 01:21:11;;;;;;;56.22;25.40;;;;;;;0.02;98.69;102251.84;5069558;28;20032;-73
2022/12/20 01:23:37;;;;;;;56.55;25.55;;;;;;;0.03;98.78;102253.56;5069645;28;20025;-73
2022/12/20 01:26:08;;;;;;;55.10;25.75;;;;;;;0.06;98.45;102248.25;5069570;28;20397;-73
2022/12/20 01:28:34;;;;;;;56.53;26.23;;;;;;;0.06;98.35;102242.13;5069050;28;20055;-73
2022/12/20 01:31:00;;;;;;;55.10;26.70;;;;;;;0.05;98.15;102243.88;5069435;28;20518;-73
2022/12/20 01:33:26;;;;;;;50.85;23.83;;;;;;;-0.14;98.31;102198.44;5069501;28;20036;-73
2022/12/20 01:35:55;;;;;;;52.38;24.50;;;;;;;0.06;98.30;102221.88;5069486;28;20051;-74
2022/12/20 01:38:21;;;;;;;49.67;25.48;;;;;;;-0.11;98.22;102179.94;5069373;28;20028;-72
2022/12/20 01:40:46;;;;;;;51.95;24.52;;;;;;;0.11;98.01;102222.69;5069104;28;20050;-72
2022/12/20 01:43:14;;;;;;;50.45;23.65;;;;;;;0.10;97.58;102205.16;5069109;28;20017;-73
2022/12/20 01:45:39;;;;;;;58.05;26.50;;;;;;;0.11;97.41;102208.63;5067808;28;20477;-73
2022/12/20 01:48:06;;;;;;;51.20;23.75;;;;;;;-0.06;97.64;102190.44;5069313;28;20020;-73
2022/12/20 01:50:33;;;;;;;51.30;23.80;;;;;;;0.11;97.69;102216.53;5069865;28;20031;-73
2022/12/20 01:52:59;;;;;;;55.63;26.85;;;;;;;0.14;97.51;102201.56;5069283;28;20024;-73
2022/12/20 01:55:27;;;;;;;58.72;26.60;;;;;;;0.17;97.24;102209.44;5070331;28;20107;-73
2022/12/20 01:58:19;;;;;;;54.95;24.42;;;;;;;0.17;97.18;102201.50;5070323;28;20107;-72
2022/12/20 02:00:44;;;;;;;51.05;24.63;;;;;;;0.19;96.94;102206.75;5068186;28;20095;-72
2022/12/20 02:03:12;;;;;;;50.47;25.02;;;;;;;0.09;96.71;102190.19;5068519;28;20056;-72
2022/12/20 02:05:44;;;;;;;53.28;25.17;;;;;;;0.17;96.76;102201.50;5070335;28;20373;-73
2022/12/20 02:08:12;;;;;;;50.05;23.05;;;;;;;0.21;96.74;102202.31;5069916;28;20020;-72
2022/12/20 02:10:52;;;;;;;48.20;23.73;;;;;;;0.22;96.30;102201.44;5068686;28;20028;-72
2022/12/20 02:13:33;;;;;;;44.75;22.27;;;;;;;0.22;96.55;102202.28;5069770;28;20036;-73
2022/12/20 02:15:59;;;;;;;44.17;21.85;;;;;;;0.26;96.09;102193.47;5068872;28;20067;-72
2022/12/20 02:18:30;;;;;;;51.20;23.10;;;;;;;0.25;95.91;102189.06;5068430;28;20559;-73
2022/12/20 02:21:26;;;;;;;45.63;22.75;;;;;;;0.32;95.68;102195.13;5070405;28;20433;-72
2022/12/20 02:24:13;;;;;;;47.67;21.77;;;;;;;0.32;95.32;102190.69;5066649;28;20028;-73
2022/12/20 02:27:23;;;;;;;44.25;21.52;;;;;;;0.32;95.45;102203.88;5074060;28;20024;-73
2022/12/20 02:30:08;;;;;;;49.50;22.38;;;;;;;0.37;95.39;102202.06;5071834;28;20029;-73
2022/12/20 02:32:39;;;;;;;;;;;;;;;0.40;94.31;102196.72;5070105;28;20043;-72
2022/12/20 02:35:07;;;;;;;47.05;22.52;;;;;;;0.40;94.89;102183.53;5069448;28;20012;-71
2022/12/20 02:37:33;;;;;;;46.25;21.35;;;;;;;0.43;94.84;102186.13;5074019;28;20485;-72
2022/12/20 02:39:59;;;;;;;45.78;21.38;;;;;;;0.40;95.08;102172.97;5072790;28;20043;-72
2022/12/20 02:42:27;;;;;;;44.70;21.63;;;;;;;0.41;94.72;102155.34;5072750;28;20064;-72
2022/12/20 02:45:14;;;;;;;43.55;21.15;;;;;;;0.41;94.37;102147.44;5073833;28;20020;-73
2022/12/20 02:47:47;;;;;;;49.00;21.92;;;;;;;0.45;94.25;102154.44;5073740;28;20074;-73
2022/12/20 02:50:17;;;;;;;44.35;21.48;;;;;;;0.43;95.20;102151.81;5064464;28;20636;-73
2022/12/20 02:52:43;;;;;;;54.42;22.05;;;;;;;0.42;94.31;102147.41;5073650;28;20654;-72
2022/12/20 02:55:10;;;;;;;44.65;22.40;;;;;;;0.43;94.49;102146.53;5073027;28;20025;-73
2022/12/20 02:57:44;;;;;;;42.72;21.60;;;;;;;0.46;94.37;102150.88;5073542;28;20035;-72
2022/12/20 03:00:13;;;;;;;40.65;20.55;;;;;;;0.40;94.08;102150.97;5073657;28;20024;-73
2022/12/20 03:05:26;;;;;;;45.45;21.08;;;;;;;0.45;93.70;102157.06;5073922;28;20035;-73
2022/12/20 03:07:52;;;;;;;43.10;20.35;;;;;;;0.37;93.40;102143.13;5073633;28;20028;-72
2022/12/20 03:10:18;;;;;;;41.00;20.35;;;;;;;0.33;94.00;102142.31;5073566;28;20093;-72
2022/12/20 03:12:44;;;;;;;46.13;21.48;;;;;;;0.32;94.25;102142.34;5072731;28;20047;-73
2022/12/20 03:15:10;;;;;;;49.10;21.95;;;;;;;0.44;94.02;102150.91;5073481;28;20097;-72
2022/12/20 03:17:36;;;;;;;42.90;22.27;;;;;;;0.37;93.77;102130.81;5073290;28;20024;-73
2022/12/20 03:20:02;;;;;;;46.85;21.52;;;;;;;0.29;93.87;102118.66;5072284;28;20043;-73
2022/12/20 03:22:28;;;;;;;39.13;20.08;;;;;;;0.36;93.99;102120.28;5073762;28;20063;-73
2022/12/20 03:24:53;;;;;;;45.00;22.25;;;;;;;0.44;93.79;102140.34;5073371;28;20017;-73
2022/12/20 03:27:18;;;;;;;46.60;21.60;;;;;;;0.45;94.16;102143.88;5073209;28;20029;-73
2022/12/20 03:29:44;;;;;;;47.22;21.98;;;;;;;0.41;93.85;102132.50;5073057;28;20473;-73
2022/12/20 03:32:10;;;;;;;42.55;20.15;;;;;;;0.42;94.14;102136.84;5073438;28;20042;-73
2022/12/20 03:34:36;;;;;;;44.70;21.42;;;;;;;0.41;94.55;102134.25;5073095;28;20091;-73
2022/12/20 03:37:02;;;;;;;42.67;21.45;;;;;;;0.42;94.77;102146.56;5073137;28;20044;-73
2022/12/20 03:39:27;;;;;;;44.17;22.08;;;;;;;0.08;94.62;102090.84;5073183;28;20031;-73
2022/12/20 03:41:53;;;;;;;44.13;21.40;;;;;;;0.38;94.75;102140.47;5071099;28;20060;-73
2022/12/20 03:44:19;;;;;;;42.13;20.83;;;;;;;0.23;94.66;102116.09;5071662;28;20651;-73
2022/12/20 03:46:44;;;;;;;39.10;21.38;;;;;;;0.35;94.52;102129.09;5072859;28;20035;-73
2022/12/20 03:49:10;;;;;;;48.47;22.42;;;;;;;0.35;94.59;102134.38;5073003;28;20025;-73
2022/12/20 03:51:35;;;;;;;46.28;19.83;;;;;;;0.44;94.34;102132.44;5072697;28;20028;-73
2022/12/20 03:54:01;;;;;;;45.90;20.25;;;;;;;0.42;94.31;102142.13;5072946;28;20020;-73
2022/12/20 03:56:26;;;;;;;44.90;21.33;;;;;;;0.46;93.47;102127.13;5072907;28;20393;-73
2022/12/20 03:58:52;;;;;;;41.25;20.63;;;;;;;0.43;93.54;102121.91;5071041;28;20106;-72
2022/12/20 04:01:24;;;;;;;45.30;23.17;;;;;;;0.49;94.16;102124.44;5072761;28;20052;-73
2022/12/20 04:03:50;;;;;;;44.15;21.10;;;;;;;0.34;93.58;102101.84;5072625;28;20071;-73
2022/12/20 04:06:16;;;;;;;38.97;19.65;;;;;;;0.47;93.68;102129.75;5071445;28;20048;-73
2022/12/20 04:08:42;;;;;;;43.35;21.90;;;;;;;0.43;93.57;102112.22;5072531;28;20032;-72
2022/12/20 04:11:17;;;;;;;42.50;21.00;;;;;;;0.37;93.21;102107.06;5072509;28;20410;-73
2022/12/20 04:13:47;;;;;;;39.58;19.98;;;;;;;0.42;93.31;102123.66;5072436;28;20055;-73
2022/12/20 04:16:15;;;;;;;46.45;21.50;;;;;;;0.43;93.77;102127.19;5072258;28;20173;-73
2022/12/20 04:18:41;;;;;;;46.97;20.90;;;;;;;0.33;93.85;102123.84;5072273;28;20036;-73
2022/12/20 04:21:07;;;;;;;46.30;22.25;;;;;;;0.42;93.92;102151.84;5072390;28;20046;-73
2022/12/20 04:23:37;;;;;;;42.78;20.38;;;;;;;0.33;94.17;102130.88;5072339;28;20028;-73
2022/12/20 04:26:04;;;;;;;42.40;20.13;;;;;;;0.38;94.25;102147.53;5072424;28;20453;-73
2022/12/20 04:28:30;;;;;;;40.67;20.02;;;;;;;0.34;94.25;102135.25;5072436;28;20032;-73
2022/12/20 04:30:56;;;;;;;45.10;22.10;;;;;;;0.37;94.15;102133.44;5072260;28;20103;-72
2022/12/20 04:33:22;;;;;;;45.33;20.45;;;;;;;0.38;94.11;102110.56;5072203;28;20032;-72
2022/12/20 04:35:48;;;;;;;40.10;20.92;;;;;;;0.37;93.81;102100.91;5071887;28;20133;-73
2022/12/20 04:38:13;;;;;;;39.50;19.48;;;;;;;0.25;93.62;102075.59;5071818;28;20091;-72
2022/12/20 04:40:39;;;;;;;42.60;20.60;;;;;;;0.28;93.75;102087.84;5071853;28;20059;-73
2022/12/20 04:43:04;;;;;;;41.42;20.90;;;;;;;0.24;93.80;102078.28;5071744;28;20035;-73
2022/12/20 04:45:30;;;;;;;44.20;20.35;;;;;;;0.36;93.63;102092.13;5070957;28;20028;-73
2022/12/20 04:47:55;;;;;;;42.97;20.13;;;;;;;0.33;92.90;102086.91;5071943;28;20028;-73
2022/12/20 04:50:21;;;;;;;44.33;20.67;;;;;;;0.31;92.98;102085.16;5071491;28;20424;-73
2022/12/20 04:55:35;;;;;;;43.15;19.52;;;;;;;0.19;92.81;102083.63;5071703;28;20520;-72
2022/12/20 04:58:00;;;;;;;41.40;19.92;;;;;;;0.29;93.13;102092.25;5071996;28;20040;-73
2022/12/20 05:00:26;;;;;;;38.70;20.10;;;;;;;0.26;92.55;102089.69;5071817;28;20024;-73
2022/12/20 05:02:51;;;;;;;42.97;19.73;;;;;;;0.22;92.65;102074.81;5071467;28;20020;-73
2022/12/20 05:05:17;;;;;;;40.80;20.10;;;;;;;0.23;93.16;102087.97;5070045;28;20157;-73
2022/12/20 05:07:42;;;;;;;40.92;19.48;;;;;;;0.25;93.14;102090.59;5071439;28;20032;-73
2022/12/20 05:10:08;;;;;;;38.17;18.50;;;;;;;0.23;92.98;102101.16;5070082;28;20599;-73
2022/12/20 05:12:33;;;;;;;40.03;19.77;;;;;;;0.23;93.35;102105.56;5071136;28;20047;-73
2022/12/20 05:14:58;;;;;;;40.00;20.08;;;;;;;0.15;93.74;102089.84;5071220;28;20035;-71
2022/12/20 05:17:24;;;;;;;43.75;20.17;;;;;;;0.14;93.63;102088.13;5069919;28;20059;-72
2022/12/20 05:19:49;;;;;;;44.47;20.58;;;;;;;0.30;93.12;102120.38;5070897;28;20076;-72
2022/12/20 05:27:42;;;;;;;39.17;21.00;;;;;;;0.31;93.32;102104.53;5070860;28;20047;-73
2022/12/20 05:30:08;;;;;;;39.65;18.65;;;;;;;0.24;93.39;102088.81;5070774;28;20047;-74
2022/12/20 05:32:34;;;;;;;38.40;19.55;;;;;;;0.09;93.77;102068.00;5069807;28;20024;-72
2022/12/20 05:34:59;;;;;;;45.50;20.73;;;;;;;0.24;93.28;102084.44;5071146;28;20035;-73
2022/12/20 05:37:25;;;;;;;42.05;20.83;;;;;;;0.25;93.45;102087.94;5070959;28;20103;-74
2022/12/20 05:39:50;;;;;;;37.08;19.20;;;;;;;0.15;93.09;102071.38;5070838;28;20045;-72
2022/12/20 05:42:16;;;;;;;40.92;20.63;;;;;;;0.29;93.42;102089.63;5071012;28;20036;-72
2022/12/20 05:44:41;;;;;;;44.80;21.13;;;;;;;0.24;93.19;102084.44;5069731;28;20389;-73
2022/12/20 05:47:06;;;;;;;38.00;18.52;;;;;;;0.26;91.96;102076.47;5070970;28;20415;-73
2022/12/20 05:49:32;;;;;;;42.30;20.13;;;;;;;0.30;92.79;102083.44;5061845;28;20055;-73
2022/12/20 05:51:57;;;;;;;47.90;22.92;;;;;;;0.22;92.99;102070.38;5067981;28;20024;-73
2022/12/20 05:54:24;;;;;;;44.97;21.23;;;;;;;0.20;93.45;102066.91;5068517;28;20110;-73
2022/12/20 05:56:49;;;;;;;41.85;19.95;;;;;;;0.11;93.39;102053.88;5070069;28;20028;-74
2022/12/20 05:59:16;;;;;;;40.20;18.90;;;;;;;0.20;92.91;102069.56;5070279;28;20047;-71
2022/12/20 06:01:42;;;;;;;46.08;21.58;;;;;;;0.16;92.54;102059.94;5068905;28;20538;-73
2022/12/20 06:04:07;;;;;;;42.40;20.85;;;;;;;-0.06;92.49;102011.13;5068726;28;20029;-72
2022/12/20 06:06:33;;;;;;;41.75;19.52;;;;;;;0.21;92.89;102079.19;5069795;28;20071;-73
2022/12/20 06:08:58;;;;;;;42.45;19.98;;;;;;;0.16;93.52;102078.41;5069808;28;20055;-73
2022/12/20 06:11:23;;;;;;;41.95;20.05;;;;;;;0.16;93.63;102080.19;5070074;28;20489;-73
2022/12/20 06:13:49;;;;;;;44.47;20.98;;;;;;;0.13;93.14;102081.13;5068931;28;20036;-74
2022/12/20 06:16:14;;;;;;;40.40;20.35;;;;;;;-0.05;93.13;102055.03;5070186;28;20032;-73
2022/12/20 06:18:40;;;;;;;46.05;21.25;;;;;;;0.15;93.30;102075.78;5070154;28;20025;-73
2022/12/20 06:21:06;;;;;;;47.58;21.70;;;;;;;0.10;93.43;102081.16;5070054;28;20071;-73
2022/12/20 06:23:33;;;;;;;44.28;21.40;;;;;;;0.13;93.50;102091.66;5070570;28;20020;-73
2022/12/20 06:25:58;;;;;;;61.70;26.88;;;;;;;0.12;93.46;102092.53;5070320;28;20032;-73
2022/12/20 06:28:23;;;;;;;47.60;22.13;;;;;;;0.02;93.32;102061.94;5061600;28;20042;-73
2022/12/20 06:30:57;;;;;;;40.35;19.85;;;;;;;0.19;92.95;102090.69;5070080;28;20442;-72
2022/12/20 06:33:23;;;;;;;39.63;19.45;;;;;;;0.13;92.74;102086.38;5070573;28;20111;-72
2022/12/20 06:35:49;;;;;;;39.78;19.65;;;;;;;0.09;92.89;102073.28;5069270;28;20185;-73
2022/12/20 06:38:15;;;;;;;40.40;19.02;;;;;;;0.15;92.57;102079.31;5069154;28;20032;-72
2022/12/20 06:40:41;;;;;;;45.28;20.20;;;;;;;-0.06;92.92;102048.03;5070233;28;20067;-73
2022/12/20 06:43:07;;;;;;;42.08;19.73;;;;;;;0.14;92.75;102074.94;5069940;28;20031;-73
2022/12/20 06:45:32;;;;;;;42.25;19.80;;;;;;;0.11;92.90;102063.56;5069118;28;20473;-73
2022/12/20 06:47:58;;;;;;;38.28;19.67;;;;;;;0.10;92.64;102067.97;5068365;28;20032;-73
2022/12/20 06:50:24;;;;;;;42.80;19.45;;;;;;;0.12;92.53;102074.06;5068991;28;20024;-73
2022/12/20 06:52:49;;;;;;;39.03;17.70;;;;;;;0.15;92.56;102089.84;5069311;28;20032;-73
2022/12/20 06:55:16;;;;;;;46.42;21.80;;;;;;;0.11;92.67;102089.94;5069413;28;20025;-73
2022/12/20 06:57:41;;;;;;;44.65;20.25;;;;;;;0.12;92.68;102089.91;5069060;28;20467;-73
2022/12/20 07:00:09;;;;;;;37.22;19.33;;;;;;;0.21;92.60;102089.75;5069782;28;20108;-73
2022/12/20 07:02:35;;;;;;;43.90;20.70;;;;;;;0.17;92.40;102093.34;5068552;28;20028;-69
2022/12/20 07:05:00;;;;;;;42.80;21.10;;;;;;;0.19;92.91;102091.53;5067790;28;20048;-70
2022/12/20 07:07:26;;;;;;;38.78;19.92;;;;;;;0.24;92.66;102092.34;5069230;28;20067;-69
2022/12/20 07:09:51;;;;;;;45.90;19.10;;;;;;;0.29;92.72;102081.72;5070805;28;20396;-70
2022/12/20 07:12:17;;;;;;;37.67;19.65;;;;;;;0.18;91.84;102052.00;5072581;28;20048;-73
2022/12/20 07:14:42;;;;;;;40.80;19.90;;;;;;;0.25;92.37;102045.72;5073483;28;20036;-73
2022/12/20 07:17:08;;;;;;;44.20;19.50;;;;;;;0.25;92.27;102036.03;5072366;28;20114;-72
2022/12/20 07:19:35;;;;;;;39.35;20.00;;;;;;;0.30;91.86;102025.38;5072663;28;20024;-72
2022/12/20 07:22:01;;;;;;;41.63;20.15;;;;;;;0.41;91.53;102037.47;5072497;28;20449;-73
2022/12/20 07:24:26;;;;;;;44.58;21.45;;;;;;;0.47;91.20;102040.00;5073850;28;20032;-72
2022/12/20 07:26:52;;;;;;;41.17;21.08;;;;;;;0.37;91.03;102019.97;5073522;28;20024;-72
2022/12/20 07:29:17;;;;;;;41.90;20.08;;;;;;;0.49;91.36;102035.59;5073636;28;20731;-72
2022/12/20 07:31:43;;;;;;;40.55;20.52;;;;;;;0.47;91.70;102029.44;5073873;28;20043;-72
2022/12/20 07:34:08;;;;;;;42.38;20.48;;;;;;;0.54;91.08;102041.63;5073599;28;20032;-73
2022/12/20 07:36:34;;;;;;;41.50;20.40;;;;;;;0.58;90.75;102040.66;5073998;28;20045;-73
2022/12/20 07:38:59;;;;;;;43.33;21.88;;;;;;;0.59;90.99;102034.50;5073881;28;20020;-73
2022/12/20 07:41:25;;;;;;;44.50;22.10;;;;;;;0.48;90.73;102004.78;5073325;28;20044;-73
2022/12/20 07:43:50;;;;;;;44.58;21.52;;;;;;;0.61;89.84;102019.47;5072959;28;20024;-70
2022/12/20 07:46:16;;;;;;;44.92;20.80;;;;;;;0.67;89.40;102015.88;5072300;28;20107;-70
2022/12/20 07:48:43;;;;;;;41.22;19.73;;;;;;;0.72;89.52;102014.88;5070899;28;20067;-70
2022/12/20 07:51:19;;;;;;;45.90;21.45;;;;;;;0.70;89.29;102014.03;5072299;28;20036;-70
2022/12/20 07:53:51;;;;;;;38.65;19.88;;;;;;;0.70;89.53;102024.59;5072046;28;20028;-70
2022/12/20 07:56:18;;;;;;;44.08;21.35;;;;;;;0.62;90.17;102000.13;5072302;28;20407;-73
2022/12/20 07:58:44;;;;;;;46.70;22.52;;;;;;;0.79;90.35;102024.41;5072241;28;20124;-73
2022/12/20 08:01:11;;;;;;;41.65;20.95;;;;;;;0.64;90.01;101992.19;5072135;28;20107;-73
2022/12/20 08:03:42;;;;;;;42.60;21.25;;;;;;;0.86;89.41;102036.56;5071972;28;20028;-73
2022/12/20 08:06:08;;;;;;;40.22;21.25;;;;;;;0.87;89.55;102048.88;5073340;28;20553;-73
2022/12/20 08:08:39;;;;;;;40.28;19.35;;;;;;;0.89;89.97;102049.72;5071932;28;20032;-73
2022/12/20 08:11:08;;;;;;;42.85;18.77;;;;;;;0.92;89.66;102041.72;5073009;28;20029;-73
2022/12/20 08:13:34;;;;;;;36.58;19.23;;;;;;;0.92;89.78;102033.81;5073187;28;20385;-73
2022/12/20 08:16:00;;;;;;;39.47;19.45;;;;;;;0.93;89.46;102032.03;5072857;28;20028;-73
2022/12/20 08:18:25;;;;;;;39.63;18.70;;;;;;;0.96;88.82;102031.94;5073201;28;20029;-73
2022/12/20 08:20:51;;;;;;;35.05;18.45;;;;;;;0.99;88.57;102022.19;5071812;28;20036;-73
2022/12/20 08:23:18;;;;;;;37.33;20.13;;;;;;;0.98;88.71;102023.13;5072648;28;20028;-73
2022/12/20 08:25:43;;;;;;;41.10;21.83;;;;;;;1.07;89.20;102036.13;5072643;28;20063;-70
2022/12/20 08:28:09;;;;;;;39.88;21.17;;;;;;;1.18;88.86;102039.41;5071556;28;20052;-70
2022/12/20 08:30:35;;;;;;;38.28;18.65;;;;;;;1.19;88.47;102019.97;5071420;28;20032;-70
2022/12/20 08:33:00;;;;;;;44.17;20.10;;;;;;;1.33;87.29;102031.13;5071393;28;20729;-70
2022/12/20 08:35:25;;;;;;;44.83;20.30;;;;;;;1.28;87.55;102022.44;5071619;28;20078;-70
2022/12/20 08:41:26;;;;;;;42.87;20.57;;;;;;;1.32;88.11;102018.81;5071456;28;20064;-73
2022/12/20 08:43:51;;;;;;;38.10;20.42;;;;;;;1.26;88.08;101995.16;5071775;28;20032;-73
2022/12/20 08:46:17;;;;;;;34.92;19.25;;;;;;;1.41;87.88;102010.66;5071857;28;20028;-72
2022/12/20 08:48:42;;;;;;;38.38;18.90;;;;;;;1.50;87.14;102025.44;5073036;28;20036;-73
2022/12/20 08:51:11;;;;;;;37.38;18.85;;;;;;;1.52;87.18;102019.19;5072944;28;20037;-73
2022/12/20 08:53:37;;;;;;;43.25;19.38;;;;;;;1.62;85.60;102022.50;5072818;28;20551;-73
2022/12/20 08:56:14;;;;;;;39.30;18.88;;;;;;;1.68;84.05;102019.72;5072797;28;20477;-73
2022/12/20 08:58:40;;;;;;;42.92;20.70;;;;;;;1.70;84.42;102032.00;5071516;28;20553;-73
2022/12/20 09:01:08;;;;;;;35.15;18.90;;;;;;;1.75;85.19;102018.66;5072953;28;20024;-73
2022/12/20 09:03:35;;;;;;;40.17;19.77;;;;;;;1.85;85.11;102009.59;5070970;28;20028;-73
2022/12/20 09:06:05;;;;;;;37.47;18.77;;;;;;;1.93;84.01;102013.75;5071337;28;20115;-74
2022/12/20 09:08:31;;;;;;;37.92;19.15;;;;;;;1.89;83.64;102011.22;5071752;28;20040;-73
2022/12/20 09:11:12;;;;;;;40.40;19.25;;;;;;;1.99;81.60;102021.56;5072565;28;20162;-73
2022/12/20 09:13:39;;;;;;;39.20;19.83;;;;;;;2.03;81.02;102004.69;5071332;28;20465;-73
2022/12/20 09:16:05;;;;;;;38.40;18.63;;;;;;;1.85;81.06;101984.00;5072426;28;20028;-73
2022/12/20 09:18:31;;;;;;;42.20;20.38;;;;;;;1.80;82.46;101985.88;5072178;28;20099;-73
2022/12/20 09:21:01;;;;;;;33.15;17.95;;;;;;;1.90;82.36;101990.03;5072141;28;20178;-73
2022/12/20 09:23:28;;;;;;;37.33;18.50;;;;;;;1.89;82.33;101988.31;5071858;28;20040;-73
2022/12/20 09:25:54;;;;;;;36.97;18.52;;;;;;;1.84;82.35;101987.53;5070847;28;20381;-73
2022/12/20 09:28:20;;;;;;;42.90;21.02;;;;;;;1.79;82.97;101992.09;5071799;28;20024;-73
2022/12/20 09:30:46;;;;;;;43.65;20.13;;;;;;;1.78;83.29;101982.41;5071541;28;20024;-73
2022/12/20 09:33:11;;;;;;;39.17;19.90;;;;;;;1.78;83.52;101973.63;5070358;28;20074;-73
2022/12/20 09:35:43;;;;;;;46.15;22.17;;;;;;;1.74;84.27;101964.88;5066988;28;20043;-73
2022/12/20 09:38:09;;;;;;;46.00;20.23;;;;;;;1.55;84.74;101920.47;5070261;28;20686;-73
2022/12/20 09:40:37;;;;;;;37.65;20.40;;;;;;;1.84;84.33;101960.25;5071683;28;20033;-72
2022/12/20 09:43:03;;;;;;;37.30;19.45;;;;;;;1.77;84.43;101926.91;5071588;28;20033;-72
2022/12/20 09:45:34;;;;;;;40.80;20.48;;;;;;;1.74;84.20;101906.69;5070604;28;20535;-72
2022/12/20 09:48:00;;;;;;;42.03;20.15;;;;;;;1.85;83.48;101917.00;5071781;28;20039;-73
2022/12/20 09:51:06;;;;;;;42.60;19.52;;;;;;;1.90;83.71;101925.66;5071784;28;20024;-72
2022/12/20 09:53:58;;;;;;;35.45;18.25;;;;;;;1.89;82.82;101916.00;5021909;28;20457;-72
2022/12/20 09:56:31;;;;;;;36.85;19.27;;;;;;;2.05;82.13;101933.19;5050911;28;20111;-72
2022/12/20 09:59:01;;;;;;;41.47;19.77;;;;;;;2.02;82.47;101928.88;5051723;28;20112;-73
2022/12/20 10:01:29;;;;;;;36.20;19.35;;;;;;;1.97;82.42;101917.53;5050481;28;20029;-73
2022/12/20 10:03:56;;;;;;;68.32;31.40;;;;;;;2.06;83.29;101927.88;5051598;28;20082;-73
2022/12/20 10:06:35;;;;;;;40.00;20.23;;;;;;;2.04;82.12;101926.19;5050026;28;20021;-73
2022/12/20 10:09:03;;;;;;;37.13;20.13;;;;;;;2.14;82.47;101939.13;5050997;28;20385;-74
2022/12/20 10:11:29;;;;;;;42.40;22.80;;;;;;;2.24;82.41;101943.25;5049751;28;20585;-73
2022/12/20 10:14:04;;;;;;;41.58;20.50;;;;;;;2.30;81.51;101945.69;5049999;28;20108;-73
2022/12/20 10:16:44;;;;;;;41.78;20.05;;;;;;;2.29;81.12;101935.19;5050442;28;20102;-70
2022/12/20 10:19:40;;;;;;;37.85;19.15;;;;;;;2.41;81.09;101947.19;5050164;28;20125;-70
2022/12/20 10:22:13;;;;;;;39.70;18.55;;;;;;;2.44;81.74;101934.72;5050119;28;20394;-70
2022/12/20 10:24:44;;;;;;;39.53;20.52;;;;;;;2.36;81.46;101900.53;5050127;28;20053;-70
2022/12/20 10:27:20;;;;;;;36.47;17.98;;;;;;;2.46;80.32;101900.25;5050010;28;20036;-70
2022/12/20 10:29:48;;;;;;;40.85;23.05;;;;;;;2.40;79.79;101872.19;5050007;28;20029;-70
2022/12/20 10:32:16;;;;;;;39.50;21.13;;;;;;;2.63;79.42;101887.38;5049698;28;20035;-71
2022/12/20 10:34:54;;;;;;;37.03;18.35;;;;;;;2.41;79.32;101859.84;5048572;28;20053;-70
2022/12/20 10:37:20;;;;;;;36.92;19.58;;;;;;;2.61;78.29;101873.34;5049012;28;20552;-73
2022/12/20 10:39:48;;;;;;;34.70;18.25;;;;;;;2.68;78.31;101873.09;5050659;28;20044;-74
2022/12/20 10:42:24;;;;;;;37.72;18.42;;;;;;;2.74;77.42;101872.03;5050727;28;20068;-73
2022/12/20 10:44:50;;;;;;;34.17;18.42;;;;;;;2.68;77.51;101859.84;5054769;28;20083;-74
2022/12/20 10:47:40;;;;;;;39.28;18.88;;;;;;;2.75;77.16;101869.34;5055521;28;20021;-74
2022/12/20 10:50:15;;;;;;;40.25;19.20;;;;;;;2.75;77.67;101857.88;5055306;28;20032;-74
2022/12/20 10:52:43;;;;;;;34.10;17.88;;;;;;;2.80;76.08;101845.38;5053891;28;20035;-74
2022/12/20 10:55:36;;;;;;;33.58;17.10;;;;;;;2.82;76.02;101843.50;5055135;28;20040;-74
2022/12/20 10:58:29;;;;;;;34.25;16.83;;;;;;;2.90;75.70;101857.41;5053859;28;20021;-74
2022/12/20 11:01:17;;;;;;;38.03;18.92;;;;;;;2.95;75.76;101851.03;5058220;28;20040;-74
2022/12/20 11:04:31;;;;;;;35.88;18.65;;;;;;;3.01;74.72;101849.97;5055258;28;20374;-74
2022/12/20 11:06:58;;;;;;;33.92;17.85;;;;;;;3.04;74.24;101833.97;5019949;28;20473;-74
2022/12/20 11:09:36;;;;;;;37.17;17.25;;;;;;;3.03;73.86;101832.25;5053565;28;20103;-74
2022/12/20 11:12:10;;;;;;;33.95;17.88;;;;;;;3.10;73.77;101839.06;5054952;28;20044;-74
2022/12/20 11:14:37;;;;;;;37.75;19.52;;;;;;;3.06;73.73;101808.28;5055070;28;20025;-74
2022/12/20 11:17:36;;;;;;;33.78;17.65;;;;;;;3.15;73.97;101824.72;5054772;28;20535;-74
2022/12/20 11:20:22;;;;;;;40.03;19.00;;;;;;;3.18;74.20;101823.75;5055005;28;20013;-74
2022/12/20 11:22:50;;;;;;;35.38;17.85;;;;;;;3.20;74.33;101813.97;5054657;28;20036;-74
2022/12/20 11:25:34;;;;;;;40.75;19.95;;;;;;;3.20;74.50;101800.72;5054528;28;20037;-74
2022/12/20 11:28:20;;;;;;;39.90;20.00;;;;;;;3.28;72.10;101796.00;5054504;28;20035;-74
2022/12/20 11:30:57;;;;;;;34.88;18.25;;;;;;;3.34;71.84;101795.81;5013769;28;20045;-74
2022/12/20 11:33:55;;;;;;;32.80;16.95;;;;;;;3.36;70.49;101791.31;5054527;28;20044;-74
2022/12/20 11:36:32;;;;;;;36.50;17.90;;;;;;;3.44;69.06;101791.91;5053106;28;20045;-71
2022/12/20 11:39:01;;;;;;;38.03;19.90;;;;;;;3.42;69.14;101783.16;5051752;28;20124;-71